Airfield :
LOGIN :

Register | Disclaimer

   EN    FR    IT 

 










Legend :    VFR   Marginal VFR   IFR   Intensive IFR   Very Intensive IFR
Visi :
Ceiling :
>= 8 km
>= 3000ft
5 to 8 km
1000 to 3000 ft
1500m to 5 km
500 to 1000 ft
800 to 1500m
200 to 500 ft
< 800m
< 200 ft
Symbols :   Thunderstorms  Fog  Heavy snow  Heavy precipitations  Wind > 20 kt
SIGMETs :     Misc.  Thunderstorms  Icing  Turbulence  Mountain Waves  Volcanic Ashes







- Airport Elevation : 1521 ft
- IATA code : NCY
- Download approach charts


LFLP - Annecy

CURRENT METAR :
  • 261230Z AUTO 20005KT 150V270 9999 BKN043 21/10 Q1015 NOSIG

EXPIRED METARs :
  • 261200Z AUTO 32006KT 280V360 9999 BKN043 BKN054 BKN074 20/11 Q1015 NOSIG
  • 261130Z AUTO 28005KT 220V010 9999 FEW042 BKN076 21/10 Q1015 NOSIG
  • 261100Z AUTO 29008KT 9999 FEW042 OVC074 20/11 Q1015 NOSIG
  • 261030Z AUTO 31008KT 270V360 9999 FEW041 BKN074 20/11 Q1015 NOSIG
  • 261000Z AUTO 29006KT 260V330 9999 SCT072 20/11 Q1015 NOSIG
  • 260930Z AUTO 23004KT 190V270 9999 FEW024 SCT029 BKN070 19/12 Q1015 NOSIG

TAF TAF LFLP
Valid from the 26 at 09:00 until the 27 at 09:00 UTC


260800Z 2609/2709 30005KT 9999 SCT030
BECMG 2617/2619 VRB02KT CAVOK
No reported NOTAMs for that airfield.



MET'MAP, your aeronautical weather chart ! - Copyright ORBIFLY December 2007 - Disclaimer

ORBIFLY MET'MAP TEAM :

Programming & Development : Alexandra Zaïnal
Concept & Development : Baudouin d'Aumeries
Co-Development & Prog : Marc-Olivier Méhu
Technical & hardware support : Manuel Goepfert

Contact : metmap@orbifly.com




SOURCES & CREDITS :

   NOAA